createdAt,value
2018-02-18T00:00:23.442Z,117.50
2018-02-18T00:02:49.914Z,93.13
2018-02-18T00:05:16.313Z,98.80
2018-02-18T00:07:42.705Z,90.10
2018-02-18T00:10:09.181Z,84.10
2018-02-18T00:12:35.709Z,87.03
2018-02-18T00:15:12.026Z,83.33
2018-02-18T00:17:38.378Z,75.37
2018-02-18T00:20:04.821Z,70.20
2018-02-18T00:22:31.193Z,70.63
2018-02-18T00:24:57.569Z,64.37
2018-02-18T00:27:24.042Z,64.90
2018-02-18T00:29:50.402Z,66.43
2018-02-18T00:32:16.963Z,67.00
2018-02-18T00:34:43.414Z,61.60
2018-02-18T00:37:09.804Z,63.10
2018-02-18T00:39:36.341Z,58.27
2018-02-18T00:42:02.854Z,59.03
2018-02-18T00:44:29.178Z,61.60
2018-02-18T00:46:55.569Z,57.80
2018-02-18T00:49:21.948Z,58.70
2018-02-18T00:51:48.549Z,55.30
2018-02-18T00:54:14.942Z,53.47
2018-02-18T00:56:41.373Z,52.10
2018-02-18T00:59:07.749Z,46.00
2018-02-18T01:01:34.185Z,50.20
2018-02-18T01:04:00.617Z,53.07
2018-02-18T01:06:27.038Z,47.33
2018-02-18T01:08:53.458Z,47.07
2018-02-18T01:11:19.870Z,52.97
2018-02-18T01:13:46.306Z,53.93
2018-02-18T01:16:12.702Z,52.63
2018-02-18T01:18:39.106Z,50.20
2018-02-18T01:21:05.503Z,52.20
2018-02-18T01:23:31.872Z,51.77
2018-02-18T01:25:58.254Z,50.90
2018-02-18T01:28:24.666Z,51.73
2018-02-18T01:30:51.098Z,50.23
2018-02-18T01:33:17.518Z,46.60
2018-02-18T01:35:43.922Z,47.57
2018-02-18T01:38:10.321Z,47.13
2018-02-18T01:40:36.673Z,48.57
2018-02-18T01:43:03.046Z,49.60
2018-02-18T01:45:29.477Z,48.27
2018-02-18T01:47:55.829Z,53.03
2018-02-18T01:50:34.441Z,47.27
2018-02-18T01:53:00.817Z,51.67
2018-02-18T01:55:27.205Z,49.77
2018-02-18T01:57:53.539Z,45.17
2018-02-18T02:00:19.933Z,46.13
2018-02-18T02:02:46.296Z,46.20
2018-02-18T02:05:12.632Z,49.33
2018-02-18T02:07:38.998Z,45.63
2018-02-18T02:10:05.370Z,44.77
2018-02-18T02:12:31.719Z,44.37
2018-02-18T02:14:58.160Z,50.90
2018-02-18T02:17:24.501Z,48.43
2018-02-18T02:19:50.875Z,47.47
2018-02-18T02:22:17.257Z,50.57
2018-02-18T02:24:43.610Z,46.87
2018-02-18T02:27:09.996Z,46.93
2018-02-18T02:29:36.350Z,51.27
2018-02-18T02:32:02.753Z,43.93
2018-02-18T02:34:29.162Z,41.90
2018-02-18T02:36:55.558Z,43.43
2018-02-18T02:39:21.982Z,43.30
2018-02-18T02:41:48.370Z,42.67
2018-02-18T02:44:14.717Z,39.60
2018-02-18T02:46:41.073Z,40.63
2018-02-18T02:49:07.470Z,42.00
2018-02-18T02:51:33.846Z,44.77
2018-02-18T02:54:00.190Z,36.00
2018-02-18T02:56:26.562Z,36.63
2018-02-18T02:58:52.942Z,36.87
2018-02-18T03:01:19.278Z,38.07
2018-02-18T03:03:45.642Z,39.97
2018-02-18T03:06:12.086Z,38.53
2018-02-18T03:08:38.424Z,35.33
2018-02-18T03:11:04.761Z,33.77
2018-02-18T03:13:31.148Z,42.10
2018-02-18T03:15:57.507Z,34.70
2018-02-18T03:18:23.921Z,34.57
2018-02-18T03:20:50.298Z,35.60
2018-02-18T03:23:16.654Z,30.60
2018-02-18T03:25:43.006Z,34.83
2018-02-18T03:28:09.422Z,35.27
2018-02-18T03:30:35.768Z,34.73
2018-02-18T03:33:02.129Z,32.20
2018-02-18T03:35:28.535Z,33.77
2018-02-18T03:37:54.886Z,32.03
2018-02-18T03:40:21.250Z,33.90
2018-02-18T03:42:47.658Z,37.10
2018-02-18T03:45:14.014Z,30.20
2018-02-18T03:47:40.381Z,29.50
2018-02-18T03:50:06.775Z,29.97
2018-02-18T03:52:33.238Z,29.53
2018-02-18T03:54:59.650Z,31.13
2018-02-18T03:57:26.002Z,28.37
2018-02-18T03:59:52.414Z,30.43
2018-02-18T04:02:18.846Z,32.00
2018-02-18T04:04:45.205Z,33.47
2018-02-18T04:07:11.578Z,33.80
2018-02-18T04:09:37.918Z,32.67
2018-02-18T04:12:04.249Z,32.87
2018-02-18T04:14:30.645Z,36.83
2018-02-18T04:16:56.965Z,36.73
2018-02-18T04:19:23.290Z,33.77
2018-02-18T04:21:49.674Z,34.50
2018-02-18T04:24:16.157Z,34.50
2018-02-18T04:26:42.653Z,31.63
2018-02-18T04:29:08.985Z,32.27
2018-02-18T04:31:35.368Z,33.30
2018-02-18T04:34:01.737Z,33.30
2018-02-18T04:36:28.085Z,33.83
2018-02-18T04:38:54.601Z,38.73
2018-02-18T04:41:20.973Z,37.63
2018-02-18T04:43:47.329Z,32.47
2018-02-18T04:46:13.655Z,36.07
2018-02-18T04:48:40.012Z,34.23
2018-02-18T04:51:06.510Z,34.40
2018-02-18T04:53:32.966Z,31.40
2018-02-18T04:55:59.296Z,30.97
2018-02-18T04:58:25.810Z,31.30
2018-02-18T05:00:52.197Z,33.77
2018-02-18T05:03:18.550Z,34.33
2018-02-18T05:05:44.926Z,31.47
2018-02-18T05:08:11.341Z,34.03
2018-02-18T05:10:37.673Z,35.40
2018-02-18T05:13:04.058Z,38.70
2018-02-18T05:15:30.430Z,40.00
2018-02-18T05:17:56.787Z,41.00
2018-02-18T05:20:23.142Z,39.60
2018-02-18T05:22:49.569Z,41.00
2018-02-18T05:25:15.905Z,48.37
2018-02-18T05:27:42.270Z,42.27
2018-02-18T05:30:08.673Z,43.37
2018-02-18T05:32:35.897Z,48.27
2018-02-18T05:35:02.246Z,46.90
2018-02-18T05:37:28.637Z,51.03
2018-02-18T05:39:54.977Z,48.30
2018-02-18T05:42:21.477Z,49.63
2018-02-18T05:44:47.814Z,51.63
2018-02-18T05:47:14.214Z,43.37
2018-02-18T05:49:40.578Z,44.80
2018-02-18T05:52:06.961Z,42.40
2018-02-18T05:54:33.309Z,51.13
2018-02-18T05:56:59.728Z,67.63
2018-02-18T05:59:26.109Z,57.47
2018-02-18T06:01:52.547Z,59.87
2018-02-18T06:04:18.911Z,55.23
2018-02-18T06:06:45.326Z,57.73
2018-02-18T06:09:11.658Z,55.93
2018-02-18T06:11:38.050Z,57.83
2018-02-18T06:14:04.433Z,55.90
2018-02-18T06:16:30.770Z,61.13
2018-02-18T06:18:57.166Z,59.57
2018-02-18T06:21:23.690Z,60.37
2018-02-18T06:23:50.026Z,64.73
2018-02-18T06:26:16.357Z,64.13
2018-02-18T06:28:42.738Z,66.10
2018-02-18T06:31:09.107Z,85.70
2018-02-18T06:33:35.446Z,79.60
2018-02-18T06:36:01.852Z,69.43
2018-02-18T06:38:28.191Z,62.00
2018-02-18T06:40:54.578Z,60.37
2018-02-18T06:43:21.019Z,58.00
2018-02-18T06:45:47.434Z,59.37
2018-02-18T06:48:13.853Z,52.53
2018-02-18T06:50:40.454Z,50.67
2018-02-18T06:53:07.101Z,55.13
2018-02-18T06:55:33.462Z,50.37
2018-02-18T06:57:59.817Z,49.37
2018-02-18T07:00:26.249Z,51.83
2018-02-18T07:02:52.597Z,50.80
2018-02-18T07:05:18.930Z,51.27
2018-02-18T07:07:45.294Z,53.67
2018-02-18T07:10:11.621Z,54.07
2018-02-18T07:12:37.958Z,54.43
2018-02-18T07:15:04.373Z,56.87
2018-02-18T07:17:30.709Z,50.53
2018-02-18T07:19:57.118Z,56.03
2018-02-18T07:22:23.674Z,68.57
2018-02-18T07:24:50.030Z,70.83
2018-02-18T07:27:16.420Z,69.10
2018-02-18T07:29:42.829Z,70.33
2018-02-18T07:32:09.233Z,82.67
2018-02-18T07:34:35.597Z,89.87
2018-02-18T07:37:01.998Z,86.53
2018-02-18T07:39:28.346Z,89.00
2018-02-18T07:41:54.705Z,110.57
2018-02-18T07:44:21.102Z,112.67
2018-02-18T07:46:47.493Z,115.73
2018-02-18T07:49:13.843Z,126.97
2018-02-18T07:51:40.241Z,119.20
2018-02-18T07:54:06.568Z,129.33
2018-02-18T07:56:32.914Z,190.90
2018-02-18T07:58:59.286Z,215.23
2018-02-18T08:01:25.686Z,165.30
2018-02-18T08:03:52.052Z,129.30
2018-02-18T08:06:18.478Z,110.37
2018-02-18T08:08:44.814Z,102.30
2018-02-18T08:11:11.141Z,104.83
2018-02-18T08:13:37.553Z,195.13
2018-02-18T08:16:03.894Z,160.73
2018-02-18T08:18:30.347Z,102.27
2018-02-18T08:20:56.728Z,80.00
2018-02-18T08:23:23.083Z,84.70
2018-02-18T08:25:49.475Z,60.90
2018-02-18T08:28:15.918Z,62.87
2018-02-18T08:30:42.270Z,59.10
2018-02-18T08:33:08.606Z,55.77
2018-02-18T08:35:35.250Z,53.00
2018-02-18T08:38:01.600Z,61.03
2018-02-18T08:40:27.926Z,54.67
2018-02-18T08:42:54.378Z,49.20
2018-02-18T08:45:20.724Z,50.80
2018-02-18T08:47:47.082Z,50.27
2018-02-18T08:50:13.443Z,55.90
2018-02-18T08:52:40.170Z,48.03
2018-02-18T08:55:06.518Z,56.57
2018-02-18T08:57:32.912Z,53.30
2018-02-18T08:59:59.450Z,57.27
2018-02-18T09:02:25.807Z,53.77
2018-02-18T09:04:52.223Z,51.10
2018-02-18T09:07:18.555Z,51.77
2018-02-18T09:09:44.934Z,54.07
2018-02-18T09:12:11.330Z,47.60
2018-02-18T09:14:37.686Z,48.87
2018-02-18T09:17:04.147Z,40.07
2018-02-18T09:19:30.520Z,41.73
2018-02-18T09:21:56.895Z,43.00
2018-02-18T09:24:23.354Z,38.30
2018-02-18T09:26:49.803Z,39.03
2018-02-18T09:29:16.142Z,48.13
2018-02-18T09:31:42.478Z,49.17
2018-02-18T09:34:08.875Z,54.00
2018-02-18T09:36:35.225Z,44.83
2018-02-18T09:39:01.747Z,52.30
2018-02-18T09:41:28.202Z,46.77
2018-02-18T09:43:54.541Z,43.43
2018-02-18T09:46:20.900Z,42.20
2018-02-18T09:48:47.302Z,39.20
2018-02-18T09:51:13.662Z,43.33
2018-02-18T09:53:40.026Z,44.37
2018-02-18T09:58:39.358Z,41.87
2018-02-18T10:01:05.707Z,41.30
2018-02-18T10:03:32.082Z,41.03
2018-02-18T10:05:58.450Z,42.07
2018-02-18T10:08:24.830Z,40.73
2018-02-18T10:10:51.280Z,39.70
2018-02-18T10:13:17.649Z,41.90
2018-02-18T10:15:44.010Z,43.03
2018-02-18T10:18:10.490Z,41.03
2018-02-18T10:20:36.861Z,40.80
2018-02-18T10:23:03.239Z,46.37
2018-02-18T10:25:29.694Z,44.67
2018-02-18T10:27:56.041Z,39.37
2018-02-18T10:30:22.393Z,37.77
2018-02-18T10:32:48.779Z,40.50
2018-02-18T10:35:15.129Z,39.50
2018-02-18T10:37:41.493Z,35.67
2018-02-18T10:40:07.879Z,35.20
2018-02-18T10:42:34.237Z,37.63
2018-02-18T10:45:00.583Z,36.07
2018-02-18T10:47:26.954Z,42.57
2018-02-18T10:49:53.353Z,38.03
2018-02-18T10:52:19.768Z,36.00
2018-02-18T10:54:46.182Z,38.07
2018-02-18T10:57:12.522Z,40.50
2018-02-18T10:59:38.875Z,33.80
2018-02-18T11:02:05.286Z,35.77
2018-02-18T11:04:31.699Z,35.30
2018-02-18T11:06:58.081Z,33.87
2018-02-18T11:09:24.456Z,36.40
2018-02-18T11:11:50.817Z,36.30
2018-02-18T11:14:17.185Z,29.97
2018-02-18T11:16:43.573Z,32.80
2018-02-18T11:19:09.941Z,28.07
2018-02-18T11:21:36.302Z,29.27
2018-02-18T11:24:02.739Z,28.80
2018-02-18T11:26:29.089Z,32.07
2018-02-18T11:28:55.456Z,30.33
2018-02-18T11:31:21.845Z,37.57
2018-02-18T11:33:48.225Z,37.10
2018-02-18T11:36:14.613Z,36.00
2018-02-18T11:38:41.009Z,28.77
2018-02-18T11:41:07.378Z,30.03
2018-02-18T11:43:33.707Z,32.27
2018-02-18T11:46:00.106Z,30.63
2018-02-18T11:48:26.524Z,34.00
2018-02-18T11:50:52.885Z,44.20
2018-02-18T11:53:19.272Z,33.83
2018-02-18T11:55:45.650Z,33.40
2018-02-18T11:58:12.078Z,34.60
2018-02-18T12:00:38.498Z,34.37
2018-02-18T12:03:04.885Z,32.00
2018-02-18T12:05:31.241Z,31.70
2018-02-18T12:07:57.608Z,32.23
2018-02-18T12:10:23.978Z,42.67
2018-02-18T12:12:50.318Z,28.90
2018-02-18T12:15:16.677Z,33.93
2018-02-18T12:17:43.034Z,31.77
2018-02-18T12:20:09.444Z,31.10
2018-02-18T12:22:35.977Z,38.60
2018-02-18T12:25:02.414Z,31.80
2018-02-18T12:27:28.771Z,35.90
2018-02-18T12:29:55.122Z,34.67
2018-02-18T12:32:21.579Z,37.83
2018-02-18T12:34:47.962Z,40.43
2018-02-18T12:37:14.318Z,36.37
2018-02-18T12:39:40.729Z,40.80
2018-02-18T12:42:07.102Z,37.77
2018-02-18T12:44:33.461Z,47.77
2018-02-18T12:46:59.903Z,44.57
2018-02-18T12:49:26.234Z,35.87
2018-02-18T12:51:52.634Z,36.70
2018-02-18T12:54:19.042Z,35.00
2018-02-18T12:56:45.405Z,43.80
2018-02-18T12:59:11.738Z,37.20
2018-02-18T13:01:38.127Z,43.53
2018-02-18T13:04:04.489Z,39.67
2018-02-18T13:06:30.840Z,37.13
2018-02-18T13:08:57.276Z,37.10
2018-02-18T13:11:23.637Z,32.90
2018-02-18T13:13:49.999Z,39.50
2018-02-18T13:16:16.381Z,36.93
2018-02-18T13:18:42.750Z,36.57
2018-02-18T13:21:09.138Z,38.97
2018-02-18T13:23:35.539Z,38.77
2018-02-18T13:26:01.887Z,37.07
2018-02-18T13:28:28.231Z,34.67
2018-02-18T13:30:54.619Z,36.43
2018-02-18T13:33:20.974Z,35.10
2018-02-18T13:35:47.312Z,35.90
2018-02-18T13:38:13.671Z,38.60
2018-02-18T13:40:40.066Z,37.40
2018-02-18T13:43:06.434Z,36.10
2018-02-18T13:45:32.823Z,37.33
2018-02-18T13:47:59.212Z,38.57
2018-02-18T13:50:25.698Z,41.37
2018-02-18T13:52:52.051Z,37.30
2018-02-18T13:55:18.439Z,35.13
2018-02-18T13:57:44.792Z,34.20
2018-02-18T14:00:11.210Z,37.57
2018-02-18T14:02:37.558Z,37.63
2018-02-18T14:05:03.938Z,39.10
2018-02-18T14:07:30.299Z,39.73
2018-02-18T14:09:56.649Z,39.37
2018-02-18T14:12:23.109Z,41.17
2018-02-18T14:14:49.449Z,42.67
2018-02-18T14:17:15.825Z,42.33
2018-02-18T14:19:42.222Z,37.63
2018-02-18T14:22:08.573Z,38.50
2018-02-18T14:24:35.037Z,34.00
2018-02-18T14:27:01.442Z,34.83
2018-02-18T14:29:27.810Z,36.80
2018-02-18T14:31:54.325Z,33.33
2018-02-18T14:34:20.701Z,37.47
2018-02-18T14:36:47.109Z,35.30
2018-02-18T14:39:13.496Z,36.60
2018-02-18T14:41:51.969Z,38.50
2018-02-18T14:44:30.487Z,37.17
2018-02-18T15:00:20.413Z,48.67
2018-02-18T15:02:46.801Z,51.93
2018-02-18T15:05:13.185Z,49.17
2018-02-18T15:07:39.668Z,52.80
2018-02-18T15:10:06.181Z,46.60
2018-02-18T15:12:32.594Z,47.70
2018-02-18T15:14:59.186Z,48.57
2018-02-18T15:17:25.569Z,48.10
2018-02-18T15:19:51.957Z,54.83
2018-02-18T15:22:18.413Z,52.63
2018-02-18T15:24:44.806Z,59.13
2018-02-18T15:27:11.198Z,57.70
2018-02-18T15:29:37.598Z,57.90
2018-02-18T15:32:04.014Z,53.37
2018-02-18T15:34:30.412Z,53.63
2018-02-18T15:36:56.886Z,51.23
2018-02-18T15:39:23.282Z,50.53
2018-02-18T15:41:49.634Z,51.63
2018-02-18T15:44:16.042Z,54.57
2018-02-18T15:46:42.459Z,59.57
2018-02-18T15:49:08.829Z,53.60
2018-02-18T15:51:35.297Z,56.23
2018-02-18T15:54:01.694Z,58.10
2018-02-18T15:56:28.061Z,60.53
2018-02-18T15:58:54.506Z,64.80
2018-02-18T16:01:20.906Z,72.07
2018-02-18T16:03:47.254Z,73.80
2018-02-18T16:06:13.680Z,72.93
2018-02-18T16:08:40.026Z,80.83
2018-02-18T16:11:06.421Z,78.67
2018-02-18T16:13:32.802Z,80.40
2018-02-18T16:15:59.341Z,90.10
2018-02-18T16:18:25.697Z,83.33
2018-02-18T16:20:52.217Z,83.93
2018-02-18T16:23:18.641Z,83.67
2018-02-18T16:25:45.003Z,92.07
2018-02-18T16:28:11.478Z,88.93
2018-02-18T16:30:37.858Z,83.70
2018-02-18T16:33:04.261Z,84.90
2018-02-18T16:35:30.687Z,95.83
2018-02-18T16:37:57.031Z,111.17
2018-02-18T16:40:23.701Z,123.57
2018-02-18T16:42:50.114Z,136.33
2018-02-18T16:45:16.505Z,130.63
2018-02-18T16:47:42.858Z,138.87
2018-02-18T16:50:09.237Z,135.23
2018-02-18T16:52:35.593Z,128.40
2018-02-18T16:55:01.961Z,128.37
2018-02-18T16:57:28.388Z,137.57
2018-02-18T16:59:54.766Z,158.83
2018-02-18T17:02:21.126Z,148.00
2018-02-18T17:04:47.498Z,158.43
2018-02-18T17:07:13.854Z,184.07
2018-02-18T17:09:40.261Z,181.67
2018-02-18T17:12:06.650Z,180.23
2018-02-18T17:14:33.019Z,185.60
2018-02-18T17:16:59.500Z,187.87
2018-02-18T17:19:25.898Z,198.73
2018-02-18T17:21:52.309Z,198.00
2018-02-18T17:24:18.894Z,224.73
2018-02-18T17:26:45.382Z,232.63
2018-02-18T17:29:11.761Z,243.63
2018-02-18T17:31:38.181Z,242.43
2018-02-18T17:34:04.564Z,251.43
2018-02-18T17:36:30.973Z,232.20
2018-02-18T17:38:57.381Z,212.37
2018-02-18T17:41:23.757Z,198.93
2018-02-18T17:43:50.148Z,206.23
2018-02-18T17:46:16.601Z,204.13
2018-02-18T17:48:42.973Z,201.30
2018-02-18T17:51:09.431Z,209.87
2018-02-18T17:53:35.862Z,202.47
2018-02-18T17:56:02.213Z,192.80
2018-02-18T17:58:28.578Z,200.90
2018-02-18T18:00:54.985Z,219.20
2018-02-18T18:03:21.647Z,234.57
2018-02-18T18:05:48.045Z,238.17
2018-02-18T18:08:14.478Z,253.23
2018-02-18T18:10:40.936Z,241.73
2018-02-18T18:13:07.298Z,229.83
2018-02-18T18:15:33.885Z,238.37
2018-02-18T18:18:00.352Z,218.70
2018-02-18T18:20:26.710Z,208.40
2018-02-18T18:22:53.243Z,195.33
2018-02-18T18:25:26.548Z,195.90
2018-02-18T18:27:52.962Z,200.00
2018-02-18T18:30:19.506Z,218.43
2018-02-18T18:32:45.878Z,235.63
2018-02-18T18:35:12.290Z,235.20
2018-02-18T18:37:38.872Z,251.13
2018-02-18T18:40:05.309Z,261.27
2018-02-18T18:42:31.797Z,243.33
2018-02-18T18:44:58.178Z,224.50
2018-02-18T18:47:24.614Z,202.47
2018-02-18T18:49:51.037Z,191.60
2018-02-18T18:52:17.403Z,205.93
2018-02-18T18:54:45.063Z,200.37
2018-02-18T18:57:12.439Z,194.63
2018-02-18T18:59:38.846Z,203.37
2018-02-18T19:02:05.225Z,199.47
2018-02-18T19:04:31.742Z,181.73
2018-02-18T19:06:58.117Z,175.83
2018-02-18T19:09:24.617Z,179.97
2018-02-18T19:11:51.171Z,177.17
2018-02-18T19:14:18.618Z,161.27
2018-02-18T19:16:45.390Z,153.07
2018-02-18T19:19:12.134Z,153.93
2018-02-18T19:21:39.308Z,149.03
2018-02-18T19:24:06.310Z,144.40
2018-02-18T19:26:33.957Z,140.00
2018-02-18T19:29:00.545Z,140.17
2018-02-18T19:31:27.046Z,140.33
2018-02-18T19:33:55.520Z,147.70
2018-02-18T19:36:21.953Z,161.07
2018-02-18T19:38:48.303Z,164.17
2018-02-18T19:41:14.715Z,160.93
2018-02-18T19:43:41.077Z,164.67
2018-02-18T19:46:07.422Z,171.90
2018-02-18T19:48:33.838Z,184.43
2018-02-18T19:51:00.197Z,182.70
2018-02-18T19:53:26.658Z,186.53
2018-02-18T19:55:53.070Z,198.17
2018-02-18T19:58:19.419Z,185.90
2018-02-18T20:00:45.789Z,185.90
2018-02-18T20:03:12.250Z,168.03
2018-02-18T20:05:38.695Z,173.07
2018-02-18T20:08:05.095Z,175.90
2018-02-18T20:10:31.501Z,172.43
2018-02-18T20:12:57.890Z,177.27
2018-02-18T20:15:24.265Z,196.87
2018-02-18T20:17:50.672Z,176.40
2018-02-18T20:20:17.059Z,167.97
2018-02-18T20:22:43.422Z,168.20
2018-02-18T20:25:09.878Z,169.20
2018-02-18T20:27:36.261Z,156.60
2018-02-18T20:30:02.710Z,164.40
2018-02-18T20:32:29.122Z,173.97
2018-02-18T20:34:55.491Z,163.37
2018-02-18T20:37:21.926Z,160.33
2018-02-18T20:39:48.349Z,158.73
2018-02-18T20:42:14.752Z,159.57
2018-02-18T20:44:41.110Z,164.53
2018-02-18T20:47:07.618Z,167.93
2018-02-18T20:49:34.130Z,162.50
2018-02-18T20:52:00.485Z,150.93
2018-02-18T20:54:26.893Z,160.07
2018-02-18T20:56:53.233Z,165.03
2018-02-18T20:59:19.597Z,153.43
2018-02-18T21:01:46.074Z,154.57
2018-02-18T21:04:12.446Z,158.67
2018-02-18T21:06:38.813Z,161.33
2018-02-18T21:09:05.212Z,147.47
2018-02-18T21:11:31.582Z,151.90
2018-02-18T21:13:58.054Z,156.70
2018-02-18T21:16:24.423Z,150.60
2018-02-18T21:18:50.769Z,159.53
2018-02-18T21:21:17.194Z,152.97
2018-02-18T21:23:43.562Z,144.93
2018-02-18T21:26:10.015Z,137.80
2018-02-18T21:28:36.502Z,132.10
2018-02-18T21:31:02.891Z,140.07
2018-02-18T21:33:29.289Z,142.07
2018-02-18T21:35:55.953Z,140.23
2018-02-18T21:38:22.333Z,136.40
2018-02-18T21:40:48.717Z,128.33
2018-02-18T21:43:15.133Z,133.30
2018-02-18T21:45:41.490Z,129.73
2018-02-18T21:48:07.841Z,138.10
2018-02-18T21:50:34.260Z,126.90
2018-02-18T21:53:00.638Z,129.00
2018-02-18T21:55:27.010Z,128.70
2018-02-18T21:57:53.545Z,131.40
2018-02-18T22:00:19.910Z,123.30
2018-02-18T22:02:46.357Z,122.93
2018-02-18T22:05:12.831Z,129.03
2018-02-18T22:07:39.185Z,123.77
2018-02-18T22:10:05.557Z,112.60
2018-02-18T22:12:31.973Z,118.47
2018-02-18T22:14:58.336Z,117.50
2018-02-18T22:17:24.722Z,117.10
2018-02-18T22:19:51.077Z,109.17
2018-02-18T22:22:17.442Z,110.83
2018-02-18T22:24:43.862Z,112.63
2018-02-18T22:27:10.216Z,118.73
2018-02-18T22:29:36.568Z,110.10
2018-02-18T22:32:02.988Z,117.17
2018-02-18T22:34:29.385Z,117.17
2018-02-18T22:36:55.745Z,105.13
2018-02-18T22:39:22.148Z,107.87
2018-02-18T22:41:48.511Z,92.73
2018-02-18T22:44:14.889Z,88.87
2018-02-18T22:46:41.272Z,95.20
2018-02-18T22:49:07.630Z,88.43
2018-02-18T22:51:34.030Z,99.57
2018-02-18T22:54:00.393Z,89.03
2018-02-18T22:56:26.738Z,89.23
2018-02-18T22:58:53.137Z,84.53
2018-02-18T23:01:19.648Z,79.17
2018-02-18T23:03:46.097Z,81.77
2018-02-18T23:06:12.448Z,90.27
2018-02-18T23:08:38.803Z,89.10
2018-02-18T23:11:05.147Z,94.90
2018-02-18T23:13:31.547Z,97.17
2018-02-18T23:29:37.382Z,93.60
2018-02-18T23:32:03.752Z,93.97
2018-02-18T23:34:30.105Z,96.27
2018-02-18T23:36:56.509Z,91.23
2018-02-18T23:39:22.869Z,94.00
2018-02-18T23:41:49.415Z,99.53
2018-02-18T23:44:15.832Z,91.57
2018-02-18T23:46:42.216Z,88.43
2018-02-18T23:49:08.587Z,94.37
2018-02-18T23:51:35.003Z,86.47
2018-02-18T23:54:01.358Z,79.00
2018-02-18T23:56:27.722Z,76.37
2018-02-18T23:58:54.117Z,77.53
